Time;durP1;ratioP1;P1;durP2;ratioP2;P2;SDS_P1;SDS_P2;PMS_P1;PMS_P2;Temp;Humidity;BMP_temperature;BMP_pressure;BME280_temperature;BME280_humidity;BME280_pressure;Samples;Min_cycle;Max_cycle;Signal;HPM_P1;HPM_P2
2023/09/14 00:01:13;;;;;;;9.85;3.47;;;;;;;12.00;100.00;102113.28;5093943;28;20028;-70
2023/09/14 00:03:39;;;;;;;10.82;3.60;;;;;;;11.90;100.00;102116.56;5092976;28;20463;-70
2023/09/14 00:06:04;;;;;;;11.50;3.47;;;;;;;11.75;100.00;102112.78;5094240;28;20032;-70
2023/09/14 00:08:30;;;;;;;10.40;3.40;;;;;;;11.67;100.00;102111.75;5093843;28;20494;-69
2023/09/14 00:10:58;;;;;;;13.13;3.38;;;;;;;11.69;100.00;102107.34;5094010;28;20028;-70
2023/09/14 00:13:24;;;;;;;13.75;3.50;;;;;;;11.69;100.00;102107.34;5093817;28;20032;-69
2023/09/14 00:15:50;;;;;;;12.48;3.40;;;;;;;11.68;100.00;102117.06;5093743;28;20059;-69
2023/09/14 00:18:16;;;;;;;12.65;3.30;;;;;;;11.77;100.00;102118.13;5093966;28;20084;-62
2023/09/14 00:20:42;;;;;;;8.18;3.10;;;;;;;11.78;100.00;102123.44;5093452;28;20032;-62
2023/09/14 00:23:07;;;;;;;14.48;3.60;;;;;;;11.69;100.00;102123.25;5093709;28;20035;-62
2023/09/14 00:25:32;;;;;;;13.45;3.10;;;;;;;11.67;100.00;102124.97;5093829;28;20020;-62
2023/09/14 00:27:58;;;;;;;11.55;3.17;;;;;;;11.57;100.00;102112.41;5093505;28;20111;-63
2023/09/14 00:30:23;;;;;;;10.73;3.00;;;;;;;11.63;100.00;102107.22;5093543;28;20024;-63
2023/09/14 00:32:52;;;;;;;9.20;3.20;;;;;;;11.55;100.00;102124.72;5093681;28;20031;-62
2023/09/14 00:35:20;;;;;;;10.23;3.20;;;;;;;11.55;100.00;102119.41;5093674;28;20081;-62
2023/09/14 00:37:46;;;;;;;12.25;3.25;;;;;;;11.53;100.00;102111.44;5093520;28;20082;-61
2023/09/14 00:40:13;;;;;;;12.73;3.20;;;;;;;11.51;100.00;102119.34;5093468;28;20032;-62
2023/09/14 00:42:40;;;;;;;10.68;3.45;;;;;;;11.53;100.00;102114.09;5093619;28;20368;-65
2023/09/14 00:45:07;;;;;;;12.25;3.35;;;;;;;11.55;100.00;102109.75;5089164;28;20036;-62
2023/09/14 00:47:34;;;;;;;10.55;3.40;;;;;;;11.51;100.00;102111.41;5093513;28;20506;-64
2023/09/14 00:50:02;;;;;;;10.85;3.45;;;;;;;11.43;100.00;102118.31;5093482;28;20036;-62
2023/09/14 00:52:28;;;;;;;9.70;3.10;;;;;;;11.38;100.00;102113.78;5093130;28;20028;-62
2023/09/14 00:54:53;;;;;;;11.88;3.10;;;;;;;11.31;100.00;102110.09;5093568;28;20020;-64
2023/09/14 00:57:20;;;;;;;9.20;3.08;;;;;;;11.19;100.00;102110.75;5093164;28;20470;-65
2023/09/14 00:59:46;;;;;;;10.57;3.30;;;;;;;11.19;100.00;102112.50;5093002;28;20062;-65
2023/09/14 01:02:11;;;;;;;13.13;3.50;;;;;;;11.16;100.00;102121.25;5093257;28;20067;-65
2023/09/14 01:04:37;;;;;;;12.50;3.13;;;;;;;11.14;100.00;102118.59;5092985;28;20032;-66
2023/09/14 01:07:03;;;;;;;11.18;3.40;;;;;;;11.05;100.00;102113.06;5092915;28;20031;-66
2023/09/14 01:09:29;;;;;;;9.50;3.38;;;;;;;10.95;100.00;102108.41;5093118;28;20032;-65
2023/09/14 01:11:55;;;;;;;8.65;2.90;;;;;;;10.94;100.00;102115.47;5093158;28;20040;-65
2023/09/14 01:14:28;;;;;;;14.18;3.60;;;;;;;10.95;100.00;102119.00;5092915;28;20039;-66
2023/09/14 01:17:01;;;;;;;12.45;3.28;;;;;;;10.82;100.00;102126.66;5092976;28;20024;-66
2023/09/14 01:19:50;;;;;;;12.93;3.40;;;;;;;10.85;100.00;102124.94;5092962;28;20074;-66
2023/09/14 01:22:42;;;;;;;12.13;3.22;;;;;;;10.82;100.00;102133.72;5090105;28;20037;-66
2023/09/14 01:25:19;;;;;;;11.10;3.20;;;;;;;10.81;100.00;102129.28;5088970;28;20483;-68
2023/09/14 01:27:45;;;;;;;11.25;3.30;;;;;;;10.81;100.00;102124.88;5090130;28;20066;-68
2023/09/14 01:30:10;;;;;;;9.90;3.08;;;;;;;10.77;100.00;102127.41;5092947;28;20412;-66
2023/09/14 01:32:36;;;;;;;11.15;3.10;;;;;;;10.78;100.00;102119.50;5096733;28;20028;-68
2023/09/14 01:35:03;;;;;;;11.65;3.30;;;;;;;10.76;100.00;102121.25;5096949;28;20039;-67
2023/09/14 01:37:29;;;;;;;11.57;3.20;;;;;;;10.80;100.00;102116.91;5097124;28;20104;-65
2023/09/14 01:39:56;;;;;;;11.20;3.20;;;;;;;10.71;100.00;102119.34;5096986;28;20474;-68
2023/09/14 01:42:21;;;;;;;11.35;3.22;;;;;;;10.74;100.00;102125.59;5096676;28;20067;-66
2023/09/14 01:44:48;;;;;;;11.70;3.05;;;;;;;10.67;100.00;102122.75;5096758;28;20122;-67
2023/09/14 01:47:14;;;;;;;9.30;2.90;;;;;;;10.69;100.00;102115.75;5096802;28;20039;-69
2023/09/14 01:49:39;;;;;;;11.65;2.97;;;;;;;10.70;100.00;102117.53;5096649;28;20028;-65
2023/09/14 01:52:05;;;;;;;7.30;2.72;;;;;;;10.71;100.00;102119.34;5096419;28;20027;-67
2023/09/14 01:54:30;;;;;;;10.07;3.00;;;;;;;10.68;100.00;102112.22;5096988;28;20028;-69
2023/09/14 01:56:55;;;;;;;9.70;2.92;;;;;;;10.61;100.00;102115.56;5096436;28;20024;-65
2023/09/14 01:59:21;;;;;;;9.63;3.10;;;;;;;10.55;100.00;102110.13;5096230;28;20059;-67
2023/09/14 02:01:46;;;;;;;10.45;3.10;;;;;;;10.47;100.00;102115.25;5096442;28;20493;-69
2023/09/14 02:04:12;;;;;;;9.73;3.00;;;;;;;10.43;100.00;102121.31;5095087;28;20032;-68
2023/09/14 02:06:37;;;;;;;8.98;2.90;;;;;;;10.36;100.00;102114.97;5092121;28;20028;-68
2023/09/14 02:09:03;;;;;;;9.88;3.00;;;;;;;10.35;100.00;102117.56;5096512;28;20475;-68
2023/09/14 02:11:28;;;;;;;15.45;3.22;;;;;;;10.32;100.00;102113.06;5096450;28;20383;-68
2023/09/14 02:13:54;;;;;;;9.90;2.88;;;;;;;10.29;100.00;102113.91;5096168;28;20029;-68
2023/09/14 02:16:19;;;;;;;13.63;3.17;;;;;;;10.29;100.00;102119.19;5096547;28;20032;-68
2023/09/14 02:18:44;;;;;;;12.15;3.30;;;;;;;10.34;100.00;102115.75;5096067;28;20024;-68
2023/09/14 02:21:11;;;;;;;12.90;2.90;;;;;;;10.29;100.00;102107.69;5096231;28;20383;-68
2023/09/14 02:23:36;;;;;;;11.07;2.88;;;;;;;10.26;100.00;102108.50;5095914;28;20032;-69
2023/09/14 02:26:02;;;;;;;9.88;2.90;;;;;;;10.26;100.00;102104.97;5095884;28;20039;-70
2023/09/14 02:28:27;;;;;;;11.25;2.80;;;;;;;10.18;100.00;102098.59;5096069;28;20020;-69
2023/09/14 02:30:52;;;;;;;12.35;2.83;;;;;;;10.21;100.00;102103.97;5095834;28;20109;-68
2023/09/14 02:33:18;;;;;;;10.63;2.90;;;;;;;10.15;100.00;102096.78;5095804;28;20463;-68
2023/09/14 02:35:47;;;;;;;9.77;3.00;;;;;;;10.12;100.00;102102.88;5095912;28;20379;-68
2023/09/14 02:38:12;;;;;;;10.88;3.00;;;;;;;10.18;100.00;102102.16;5095660;28;20056;-67
2023/09/14 02:40:37;;;;;;;10.48;3.10;;;;;;;10.18;100.00;102099.50;5095803;28;20048;-68
2023/09/14 02:43:03;;;;;;;10.38;2.80;;;;;;;10.08;100.00;102085.16;5095951;28;20076;-69
2023/09/14 02:45:28;;;;;;;9.10;2.80;;;;;;;10.08;100.00;102094.84;5095551;28;20027;-68
2023/09/14 02:47:54;;;;;;;10.90;3.00;;;;;;;10.12;100.00;102099.34;5095539;28;20035;-69
2023/09/14 02:50:19;;;;;;;7.65;2.67;;;;;;;10.04;100.00;102100.88;5095622;28;20032;-68
2023/09/14 02:52:45;;;;;;;10.27;2.90;;;;;;;10.04;100.00;102096.47;5095411;28;20417;-68
2023/09/14 02:55:10;;;;;;;7.75;2.80;;;;;;;9.98;100.00;102100.72;5095474;28;20023;-68
2023/09/14 02:57:35;;;;;;;11.07;3.13;;;;;;;9.91;100.00;102097.00;5095293;28;20052;-68
2023/09/14 03:00:01;;;;;;;9.50;2.70;;;;;;;9.83;100.00;102098.53;5095504;28;20111;-68
2023/09/14 03:02:27;;;;;;;10.77;3.10;;;;;;;9.88;100.00;102103.09;5095349;28;20086;-68
2023/09/14 03:04:52;;;;;;;7.90;2.75;;;;;;;9.81;100.00;102092.34;5095482;28;20024;-70
2023/09/14 03:07:17;;;;;;;10.32;3.00;;;;;;;9.83;100.00;102094.19;5093808;28;20040;-70
2023/09/14 03:09:43;;;;;;;10.68;3.00;;;;;;;9.79;100.00;102094.06;5095297;28;20044;-68
2023/09/14 03:12:08;;;;;;;12.95;3.00;;;;;;;9.73;100.00;102090.38;5095056;28;20028;-69
2023/09/14 03:14:34;;;;;;;10.40;3.30;;;;;;;9.73;100.00;102093.03;5094915;28;20093;-69
2023/09/14 03:17:00;;;;;;;12.57;3.17;;;;;;;9.74;100.00;102097.47;5095100;28;20028;-68
2023/09/14 03:19:26;;;;;;;12.18;3.40;;;;;;;9.76;100.00;102095.75;5094991;28;20020;-68
2023/09/14 03:21:51;;;;;;;12.45;3.40;;;;;;;9.80;100.00;102101.09;5094771;28;20478;-67
2023/09/14 03:24:17;;;;;;;10.93;3.08;;;;;;;9.79;100.00;102100.22;5095070;28;20028;-68
2023/09/14 03:26:42;;;;;;;14.57;3.45;;;;;;;9.80;100.00;102102.03;5094736;28;20020;-66
2023/09/14 03:29:08;;;;;;;14.35;3.95;;;;;;;9.75;100.00;102106.25;5094559;28;20085;-67
2023/09/14 03:31:34;;;;;;;14.25;3.60;;;;;;;9.67;100.00;102110.41;5094903;28;20034;-68
2023/09/14 03:34:00;;;;;;;13.43;3.78;;;;;;;9.65;100.00;102112.13;5094832;28;20149;-65
2023/09/14 03:36:26;;;;;;;12.35;3.42;;;;;;;9.71;100.00;102109.66;5094531;28;20042;-65
2023/09/14 03:38:52;;;;;;;10.07;3.30;;;;;;;9.70;100.00;102106.13;5094581;28;20107;-65
2023/09/14 03:41:17;;;;;;;10.70;3.40;;;;;;;9.64;100.00;102110.34;5094365;28;20103;-68
2023/09/14 03:43:43;;;;;;;14.30;3.72;;;;;;;9.61;100.00;102105.91;5094462;28;20028;-62
2023/09/14 03:46:08;;;;;;;15.40;3.92;;;;;;;9.60;100.00;102104.09;5090412;28;20498;-67
2023/09/14 03:48:34;;;;;;;14.40;4.20;;;;;;;9.56;100.00;102107.50;5093038;28;20067;-66
2023/09/14 03:51:00;;;;;;;15.85;4.05;;;;;;;9.52;100.00;102102.97;5094520;28;20028;-65
2023/09/14 03:53:27;;;;;;;15.88;3.92;;;;;;;9.51;100.00;102102.09;5094107;28;20028;-65
2023/09/14 03:55:53;;;;;;;14.90;3.80;;;;;;;9.50;100.00;102113.50;5094347;28;20058;-66
2023/09/14 03:58:19;;;;;;;16.02;3.90;;;;;;;9.53;100.00;102107.41;5094166;28;20052;-68
2023/09/14 04:00:44;;;;;;;15.65;3.80;;;;;;;9.51;100.00;102110.00;5094011;28;20031;-62
2023/09/14 04:03:10;;;;;;;13.38;3.90;;;;;;;9.41;100.00;102108.84;5094075;28;20031;-66
2023/09/14 04:05:35;;;;;;;13.15;3.80;;;;;;;9.43;100.00;102104.47;5092906;28;20471;-65
2023/09/14 04:08:01;;;;;;;16.90;4.15;;;;;;;9.44;100.00;102102.75;5093958;28;20452;-65
2023/09/14 04:10:26;;;;;;;15.63;4.20;;;;;;;9.40;100.00;102104.41;5093847;28;20020;-65
2023/09/14 04:13:16;;;;;;;18.20;4.35;;;;;;;9.39;100.00;102102.63;5094115;28;20036;-66
2023/09/14 04:15:42;;;;;;;16.95;4.15;;;;;;;9.38;100.00;102100.84;5090309;28;20078;-62
2023/09/14 04:18:07;;;;;;;15.43;4.15;;;;;;;9.41;100.00;102098.28;5093757;28;20024;-64
2023/09/14 04:20:33;;;;;;;15.90;4.10;;;;;;;9.36;100.00;102099.00;5092366;28;20626;-64
2023/09/14 04:22:58;;;;;;;21.00;4.72;;;;;;;9.35;100.00;102095.47;5093803;28;20433;-64
2023/09/14 04:25:23;;;;;;;15.48;3.80;;;;;;;9.33;100.00;102109.47;5092398;28;20028;-66
2023/09/14 04:27:49;;;;;;;17.65;4.03;;;;;;;9.32;100.00;102094.47;5093472;28;20116;-64
2023/09/14 04:30:15;;;;;;;16.30;4.05;;;;;;;9.27;100.00;102102.25;5093977;28;20032;-64
2023/09/14 04:32:41;;;;;;;18.75;3.92;;;;;;;9.29;100.00;102103.22;5093485;28;20161;-62
2023/09/14 04:35:07;;;;;;;18.73;4.60;;;;;;;9.30;100.00;102102.34;5093477;28;20106;-64
2023/09/14 04:37:32;;;;;;;18.17;4.40;;;;;;;9.27;100.00;102104.88;5093679;28;20032;-62
2023/09/14 04:39:58;;;;;;;20.90;5.40;;;;;;;9.20;100.00;102103.84;5093285;28;20027;-62
2023/09/14 04:42:23;;;;;;;21.40;5.68;;;;;;;9.20;100.00;102110.84;5093539;28;20035;-65
2023/09/14 04:44:50;;;;;;;18.45;5.30;;;;;;;9.19;100.00;102104.66;5093514;28;20063;-63
2023/09/14 04:47:16;;;;;;;16.98;4.90;;;;;;;9.09;100.00;102099.97;5093185;28;20035;-64
2023/09/14 04:49:42;;;;;;;16.52;4.70;;;;;;;9.14;100.00;102108.00;5093458;28;20028;-62
2023/09/14 04:52:07;;;;;;;18.00;4.93;;;;;;;9.15;100.00;102105.44;5093611;28;20036;-62
2023/09/14 04:54:33;;;;;;;19.30;4.85;;;;;;;9.12;100.00;102112.38;5093294;28;20031;-65
2023/09/14 04:56:58;;;;;;;17.70;4.68;;;;;;;9.16;100.00;102111.59;5093206;28;20035;-62
2023/09/14 04:59:24;;;;;;;17.50;5.32;;;;;;;9.17;100.00;102108.09;5090823;28;20036;-61
2023/09/14 05:01:49;;;;;;;19.45;6.10;;;;;;;9.16;100.00;102101.94;5089839;28;20105;-66
2023/09/14 05:04:15;;;;;;;18.00;5.15;;;;;;;9.07;100.00;102118.38;5088887;28;20113;-63
2023/09/14 05:06:40;;;;;;;16.38;5.20;;;;;;;9.05;100.00;102106.88;5090784;28;20483;-64
2023/09/14 05:09:06;;;;;;;17.17;5.40;;;;;;;9.04;100.00;102113.03;5092810;28;20464;-62
2023/09/14 05:11:31;;;;;;;18.20;5.53;;;;;;;9.06;100.00;102111.31;5093131;28;20043;-61
2023/09/14 05:13:56;;;;;;;17.23;5.30;;;;;;;9.03;100.00;102100.66;5092312;28;20253;-64
2023/09/14 05:16:22;;;;;;;17.52;5.63;;;;;;;9.10;100.00;102117.59;5087428;28;20447;-65
2023/09/14 05:18:47;;;;;;;18.17;5.57;;;;;;;9.05;100.00;102113.91;5092960;28;20024;-64
2023/09/14 05:21:13;;;;;;;20.52;6.45;;;;;;;9.06;100.00;102120.97;5092819;28;20020;-70
2023/09/14 05:23:38;;;;;;;19.25;6.25;;;;;;;9.03;100.00;102123.53;5093287;28;20110;-73
2023/09/14 05:26:03;;;;;;;20.23;6.25;;;;;;;9.04;100.00;102128.84;5092342;28;20071;-73
2023/09/14 05:28:29;;;;;;;19.00;6.00;;;;;;;9.00;100.00;102132.22;5087884;28;20035;-68
2023/09/14 05:30:54;;;;;;;17.85;6.00;;;;;;;9.07;100.00;102135.94;5088760;28;20036;-70
2023/09/14 05:33:20;;;;;;;18.80;6.05;;;;;;;9.02;100.00;102141.06;5092489;28;20024;-69
2023/09/14 05:35:48;;;;;;;18.35;6.13;;;;;;;9.07;100.00;102149.13;5092499;28;20028;-69
2023/09/14 05:38:13;;;;;;;17.95;5.88;;;;;;;9.08;100.00;102140.38;5090694;28;20386;-68
2023/09/14 05:40:39;;;;;;;18.13;6.10;;;;;;;9.12;100.00;102138.75;5090850;28;20107;-69
2023/09/14 05:43:04;;;;;;;17.27;5.85;;;;;;;9.16;100.00;102146.78;5092373;28;20032;-72
2023/09/14 05:45:29;;;;;;;19.20;6.10;;;;;;;9.20;100.00;102142.50;5092692;28;20372;-70
2023/09/14 05:47:55;;;;;;;18.65;6.18;;;;;;;9.28;100.00;102143.63;5092761;28;20028;-70
2023/09/14 05:50:20;;;;;;;18.65;6.05;;;;;;;9.29;100.00;102139.25;5086149;28;20036;-69
2023/09/14 05:52:45;;;;;;;18.73;6.15;;;;;;;9.33;100.00;102136.72;5092518;28;20386;-70
2023/09/14 05:55:11;;;;;;;18.80;5.97;;;;;;;9.39;100.00;102147.50;5092373;28;20062;-69
2023/09/14 05:57:36;;;;;;;18.48;6.20;;;;;;;9.41;100.00;102144.91;5085669;28;20474;-62
2023/09/14 06:00:10;;;;;;;18.42;5.80;;;;;;;9.48;100.00;102145.97;5075738;28;20118;-63
2023/09/14 06:02:35;;;;;;;17.65;5.82;;;;;;;9.51;100.00;102151.31;5078634;28;20487;-62
2023/09/14 06:05:00;;;;;;;17.55;6.07;;;;;;;9.53;100.00;102152.28;5089899;28;20031;-63
2023/09/14 06:07:26;;;;;;;17.38;5.60;;;;;;;9.58;100.00;102150.66;5092627;28;20028;-65
2023/09/14 06:09:51;;;;;;;18.10;5.43;;;;;;;9.66;100.00;102149.16;5092487;28;20449;-60
2023/09/14 06:12:18;;;;;;;19.52;5.70;;;;;;;9.76;100.00;102151.19;5092312;28;20532;-62
2023/09/14 06:14:43;;;;;;;18.88;6.47;;;;;;;9.94;100.00;102152.56;5091769;28;20028;-61
2023/09/14 06:17:08;;;;;;;17.70;6.00;;;;;;;10.01;100.00;102151.00;5093224;28;20123;-60
2023/09/14 06:19:34;;;;;;;18.60;6.72;;;;;;;10.09;100.00;102147.72;5096109;28;20035;-62
2023/09/14 06:21:59;;;;;;;18.40;6.05;;;;;;;10.15;100.00;102157.56;5094488;28;20081;-63
2023/09/14 06:24:24;;;;;;;19.10;6.85;;;;;;;10.25;100.00;102154.31;5095687;28;20040;-61
2023/09/14 06:26:50;;;;;;;18.95;6.28;;;;;;;10.36;100.00;102161.66;5094181;28;20031;-61
2023/09/14 06:29:16;;;;;;;21.08;6.97;;;;;;;10.43;100.00;102156.56;5092911;28;20067;-61
2023/09/14 06:31:42;;;;;;;20.17;7.07;;;;;;;10.57;100.00;102154.28;5095538;28;20086;-62
2023/09/14 06:34:07;;;;;;;19.35;6.75;;;;;;;10.62;100.00;102160.56;5095999;28;20531;-62
2023/09/14 06:36:33;;;;;;;19.55;6.70;;;;;;;10.71;100.00;102157.25;5095649;28;20043;-60
2023/09/14 06:38:58;;;;;;;17.83;6.50;;;;;;;10.81;100.00;102156.63;5094548;28;20395;-62
2023/09/14 06:41:23;;;;;;;18.50;7.18;;;;;;;10.90;100.00;102157.69;5094386;28;20028;-61
2023/09/14 06:43:49;;;;;;;18.75;7.10;;;;;;;11.02;100.00;102165.91;5095705;28;20425;-62
2023/09/14 06:46:14;;;;;;;20.38;7.25;;;;;;;11.09;100.00;102159.03;5091786;28;20111;-61
2023/09/14 06:48:40;;;;;;;21.13;8.60;;;;;;;11.26;100.00;102160.31;5085826;28;20029;-61
2023/09/14 06:51:05;;;;;;;21.00;8.30;;;;;;;11.28;100.00;102150.63;5082409;28;20036;-62
2023/09/14 06:53:32;;;;;;;22.48;9.30;;;;;;;11.41;100.00;102165.03;5085264;28;20081;-61
2023/09/14 06:55:57;;;;;;;22.05;9.07;;;;;;;11.48;100.00;102169.59;5086090;28;20028;-60
2023/09/14 06:58:22;;;;;;;22.98;9.65;;;;;;;11.62;100.00;102169.00;5088062;28;20040;-62
2023/09/14 07:00:48;;;;;;;22.83;11.07;;;;;;;11.75;100.00;102164.84;5095398;28;20040;-61
2023/09/14 07:03:13;;;;;;;22.25;11.52;;;;;;;11.90;100.00;102175.78;5087565;28;20036;-59
2023/09/14 07:05:38;;;;;;;21.88;11.30;;;;;;;12.08;100.00;102177.91;5093260;28;20442;-60
2023/09/14 07:08:04;;;;;;;23.05;11.95;;;;;;;12.27;100.00;102179.16;5095190;28;20028;-64
2023/09/14 07:10:30;;;;;;;22.55;10.82;;;;;;;12.48;100.00;102178.66;5093617;28;20034;-61
2023/09/14 07:12:55;;;;;;;22.17;11.00;;;;;;;12.69;100.00;102180.78;5093952;28;20382;-59
2023/09/14 07:15:21;;;;;;;23.83;11.20;;;;;;;12.91;100.00;102168.75;5090479;28;20052;-62
2023/09/14 07:17:46;;;;;;;22.65;11.32;;;;;;;13.05;100.00;102168.09;5093674;28;20032;-61
2023/09/14 07:20:12;;;;;;;22.05;11.02;;;;;;;13.22;100.00;102165.66;5094734;28;20091;-60
2023/09/14 07:22:38;;;;;;;23.98;11.30;;;;;;;13.34;100.00;102159.63;5094737;28;20042;-60
2023/09/14 07:25:05;;;;;;;23.23;11.10;;;;;;;13.51;100.00;102165.22;5094644;28;20428;-60
2023/09/14 07:27:30;;;;;;;22.40;10.73;;;;;;;13.65;100.00;102168.06;5091553;28;20078;-60
2023/09/14 07:29:56;;;;;;;22.85;10.70;;;;;;;13.79;100.00;102163.81;5093786;28;20036;-60
2023/09/14 07:32:21;;;;;;;26.48;11.20;;;;;;;13.87;100.00;102172.75;5094409;28;20043;-61
2023/09/14 07:34:47;;;;;;;24.10;11.02;;;;;;;14.01;100.00;102175.59;5094483;28;20032;-61
2023/09/14 07:37:13;;;;;;;25.17;11.00;;;;;;;14.11;100.00;102171.22;5094652;28;20024;-61
2023/09/14 07:39:38;;;;;;;22.60;10.52;;;;;;;14.24;100.00;102174.91;5093545;28;20115;-60
2023/09/14 07:42:03;;;;;;;24.27;10.70;;;;;;;14.47;100.00;102175.16;5094465;28;20031;-60
2023/09/14 07:44:29;;;;;;;23.30;10.50;;;;;;;14.70;100.00;102179.84;5094135;28;20051;-60
2023/09/14 07:46:54;;;;;;;25.17;11.05;;;;;;;14.87;100.00;102178.19;5093075;28;20031;-61
2023/09/14 07:49:20;;;;;;;23.63;10.40;;;;;;;15.09;100.00;102181.03;5094359;28;20024;-61
2023/09/14 07:51:45;;;;;;;22.60;10.23;;;;;;;15.24;100.00;102175.78;5090459;28;20111;-61
2023/09/14 07:54:10;;;;;;;22.00;9.90;;;;;;;15.34;100.00;102174.94;5093634;28;20028;-64
2023/09/14 07:56:36;;;;;;;23.02;11.02;;;;;;;15.41;100.00;102183.00;5094195;28;20178;-62
2023/09/14 07:59:01;;;;;;;22.73;10.18;;;;;;;15.55;100.00;102175.06;5093878;28;20040;-61
2023/09/14 08:01:26;;;;;;;23.23;10.07;;;;;;;15.59;100.00;102177.72;5094024;28;20064;-61
2023/09/14 08:03:52;;;;;;;23.42;10.50;;;;;;;15.64;100.00;102173.31;5094395;28;20031;-61
2023/09/14 08:06:19;;;;;;;23.67;10.15;;;;;;;15.78;100.00;102184.06;5094109;28;20360;-62
2023/09/14 08:08:45;;;;;;;22.15;9.93;;;;;;;15.88;100.00;102176.13;5093936;28;20028;-61
2023/09/14 08:11:11;;;;;;;24.25;10.30;;;;;;;15.95;100.00;102173.47;5094177;28;20036;-61
2023/09/14 08:13:36;;;;;;;22.35;9.73;;;;;;;16.02;100.00;102167.25;5093841;28;20032;-62
2023/09/14 08:16:03;;;;;;;23.02;10.70;;;;;;;16.16;100.00;102169.06;5092738;28;20040;-67
2023/09/14 08:18:29;;;;;;;23.23;10.45;;;;;;;16.28;100.00;102166.44;5094012;28;20093;-67
2023/09/14 08:20:54;;;;;;;23.30;10.00;;;;;;;16.40;100.00;102168.22;5093827;28;20042;-68
2023/09/14 08:23:20;;;;;;;22.75;10.13;;;;;;;16.49;100.00;102162.00;5093955;28;20458;-68
2023/09/14 08:25:46;;;;;;;22.65;10.18;;;;;;;16.63;100.00;102162.91;5093897;28;20075;-68
2023/09/14 08:28:19;;;;;;;22.20;10.05;;;;;;;16.74;100.00;102169.13;5093634;28;20039;-67
2023/09/14 08:30:45;;;;;;;23.88;10.95;;;;;;;16.85;100.00;102168.25;5093496;28;20098;-68
2023/09/14 08:33:11;;;;;;;23.15;10.45;;;;;;;16.96;100.00;102163.78;5093695;28;20035;-69
2023/09/14 08:35:37;;;;;;;23.23;10.50;;;;;;;17.12;100.00;102153.09;5092290;28;20032;-70
2023/09/14 08:38:06;;;;;;;23.65;11.05;;;;;;;17.42;100.00;102163.69;5093344;28;20052;-70
2023/09/14 08:40:33;;;;;;;22.98;10.18;;;;;;;17.77;100.00;102167.13;5093514;28;20074;-69
2023/09/14 08:43:00;;;;;;;24.65;10.82;;;;;;;18.09;100.00;102163.44;5093289;28;20032;-68
2023/09/14 08:45:31;;;;;;;22.42;10.02;;;;;;;18.50;100.00;102166.72;5093299;28;20024;-68
2023/09/14 08:47:59;;;;;;;22.45;10.25;;;;;;;18.84;100.00;102166.41;5092519;28;20031;-70
2023/09/14 08:50:26;;;;;;;23.33;10.10;;;;;;;19.01;100.00;102169.84;5093241;28;20030;-67
2023/09/14 08:52:52;;;;;;;22.83;10.43;;;;;;;19.13;100.00;102164.41;5093179;28;20110;-70
2023/09/14 08:55:19;;;;;;;23.33;10.63;;;;;;;19.14;100.00;102165.28;5093370;28;20059;-70
2023/09/14 08:57:45;;;;;;;24.15;11.23;;;;;;;18.97;100.00;102165.44;5092988;28;20027;-66
2023/09/14 09:00:15;;;;;;;22.73;11.02;;;;;;;18.89;100.00;102161.97;5093043;28;20032;-64
2023/09/14 09:02:42;;;;;;;23.10;10.30;;;;;;;19.10;100.00;102159.03;5093127;28;20027;-61
2023/09/14 09:05:09;;;;;;;23.90;10.70;;;;;;;19.63;100.00;102155.75;5093093;28;20134;-62
2023/09/14 09:07:36;;;;;;;24.13;11.02;;;;;;;19.94;100.00;102156.28;5092952;28;20498;-62
2023/09/14 09:10:03;;;;;;;21.60;10.13;;;;;;;20.66;100.00;102165.06;5089073;28;20040;-63
2023/09/14 09:12:28;;;;;;;22.20;9.57;;;;;;;21.02;100.00;102156.34;5083750;28;20042;-62
2023/09/14 09:14:54;;;;;;;22.02;8.70;;;;;;;21.52;100.00;102149.13;5081882;28;20526;-63
2023/09/14 09:17:20;;;;;;;22.50;8.98;;;;;;;21.97;100.00;102147.25;5081959;28;20050;-60
2023/09/14 09:19:52;;;;;;;21.30;8.80;;;;;;;22.18;100.00;102151.22;5081861;28;20356;-61
2023/09/14 09:22:17;;;;;;;20.67;8.27;;;;;;;22.83;100.00;102149.66;5081227;28;20029;-60
2023/09/14 09:24:43;;;;;;;20.08;8.02;;;;;;;23.43;100.00;102154.31;5081065;28;20032;-70
2023/09/14 09:27:25;;;;;;;20.13;8.00;;;;;;;24.17;100.00;102145.78;5082618;28;20035;-70
2023/09/14 09:29:51;;;;;;;20.80;7.75;;;;;;;24.76;100.00;102155.56;5081451;28;20103;-63
2023/09/14 09:32:22;;;;;;;20.23;7.90;;;;;;;25.29;100.00;102148.28;5083889;28;20125;-61
2023/09/14 09:34:47;;;;;;;21.42;8.30;;;;;;;25.03;100.00;102145.63;5092273;28;20387;-60
2023/09/14 09:37:13;;;;;;;19.92;7.00;;;;;;;25.31;100.00;102152.75;5088412;28;20028;-62
2023/09/14 09:39:40;;;;;;;19.67;7.07;;;;;;;24.94;95.04;102145.94;5092539;28;20530;-65
2023/09/14 09:42:08;;;;;;;20.85;7.68;;;;;;;24.02;100.00;102149.88;5092473;28;20406;-64
2023/09/14 09:44:34;;;;;;;19.65;7.70;;;;;;;23.69;100.00;102147.25;5092466;28;20020;-63
2023/09/14 09:46:59;;;;;;;21.45;8.02;;;;;;;23.36;100.00;102143.72;5090090;28;20039;-64
2023/09/14 09:49:28;;;;;;;19.65;7.80;;;;;;;24.26;100.00;102141.91;5090397;28;20028;-64
2023/09/14 09:51:53;;;;;;;20.75;7.65;;;;;;;25.38;100.00;102145.25;5092883;28;20032;-67
2023/09/14 09:54:20;;;;;;;18.90;6.05;;;;;;;26.09;82.75;102145.25;5096651;28;20069;-69
2023/09/14 09:56:46;;;;;;;18.63;6.15;;;;;;;26.52;77.69;102148.00;5096850;28;20025;-67
2023/09/14 09:59:14;;;;;;;17.63;5.25;;;;;;;26.40;75.37;102142.16;5093571;28;20598;-63
2023/09/14 10:01:41;;;;;;;18.40;5.32;;;;;;;26.91;70.22;102134.59;5096168;28;20028;-70
2023/09/14 10:04:08;;;;;;;18.90;5.50;;;;;;;26.97;68.88;102136.16;5096402;28;20481;-66
2023/09/14 10:06:33;;;;;;;17.30;4.90;;;;;;;27.21;65.65;102136.84;5094989;28;20020;-68
2023/09/14 10:09:01;;;;;;;18.40;5.65;;;;;;;27.07;62.25;102137.50;5096133;28;20039;-67
2023/09/14 10:11:28;;;;;;;18.98;5.60;;;;;;;27.20;64.35;102136.94;5095887;28;20020;-70
2023/09/14 10:13:54;;;;;;;17.85;5.30;;;;;;;27.58;61.58;102126.16;5096026;28;20039;-69
2023/09/14 10:16:25;;;;;;;18.20;5.13;;;;;;;26.74;62.76;102134.44;5095914;28;20137;-68
2023/09/14 10:18:54;;;;;;;18.55;5.45;;;;;;;26.06;69.35;102132.72;5096286;28;20020;-70
2023/09/14 10:21:21;;;;;;;17.38;5.60;;;;;;;24.82;75.58;102124.75;5096324;28;20086;-68
2023/09/14 10:23:48;;;;;;;18.63;6.03;;;;;;;24.98;83.65;102131.34;5095944;28;20445;-67
2023/09/14 10:26:14;;;;;;;17.13;5.13;;;;;;;25.58;76.12;102122.84;5095970;28;20505;-68
2023/09/14 10:28:40;;;;;;;19.08;5.60;;;;;;;25.78;70.15;102118.50;5096069;28;20040;-68
2023/09/14 10:31:07;;;;;;;17.02;5.00;;;;;;;25.14;73.83;102131.69;5095862;28;20032;-70
2023/09/14 10:33:34;;;;;;;18.40;5.57;;;;;;;24.46;71.15;102128.63;5095842;28;20039;-69
2023/09/14 10:36:03;;;;;;;16.55;5.30;;;;;;;23.73;79.76;102126.47;5095941;28;20479;-68
2023/09/14 10:38:32;;;;;;;18.48;5.50;;;;;;;23.35;88.38;102120.41;5095538;28;20102;-66
2023/09/14 10:40:58;;;;;;;16.55;5.10;;;;;;;23.41;90.73;102114.81;5089407;28;20085;-72
2023/09/14 10:43:23;;;;;;;17.65;5.10;;;;;;;25.23;79.89;102114.22;5086552;28;20471;-69
2023/09/14 10:45:56;;;;;;;16.00;4.70;;;;;;;27.37;63.54;102123.50;5084566;28;20527;-72
2023/09/14 10:48:28;;;;;;;17.98;5.05;;;;;;;28.70;56.89;102125.19;5084178;28;20029;-73
2023/09/14 10:50:54;;;;;;;18.02;5.60;;;;;;;27.26;57.85;102114.94;5084589;28;20028;-68
2023/09/14 10:53:22;;;;;;;16.48;5.00;;;;;;;25.96;65.29;102109.63;5084625;28;20371;-70
2023/09/14 10:55:47;;;;;;;17.17;5.40;;;;;;;24.97;69.88;102099.84;5083857;28;20085;-68
2023/09/14 10:58:15;;;;;;;16.70;5.00;;;;;;;24.07;79.45;102096.63;5091136;28;20051;-73
2023/09/14 11:00:42;;;;;;;18.83;5.10;;;;;;;23.35;85.59;102090.72;5095082;28;20020;-71
2023/09/14 11:03:09;;;;;;;15.70;4.80;;;;;;;22.94;97.19;102091.84;5094520;28;20039;-73
2023/09/14 11:05:48;;;;;;;18.48;5.18;;;;;;;22.78;100.00;102093.19;5085968;28;20032;-72
2023/09/14 11:08:17;;;;;;;16.35;5.10;;;;;;;23.30;93.57;102080.09;5082988;28;20032;-64